Weather History for KOSC - February, 2014

Change the Weather History Date:

Tuesday, February 18, 2014

  Actual Average Record
Temperature  
Mean Temperature 24 °F -  
Max Temperature 32 °F 29 °F 51 °F (1997)
Min Temperature 16 °F 14 °F -4 °F (2015)
Degree Days  
Heating Degree Days 42    
Moisture  
Dew Point 20 °F    
Average Humidity 81    
Maximum Humidity 93    
Minimum Humidity 64    
Precipitation  
Precipitation 0.00 in - - ()
Sea Level Pressure  
Sea Level Pressure 29.74 in    
Wind  
Wind Speed 8 mph (SW)    
Max Wind Speed 15 mph    
Max Gust Speed 25 mph    
Visibility 8 miles    
Events Snow    
Averages and records for this station are not official NWS values.
T = Trace of Precipitation, MM = Missing Value Source: NWS Daily Summary

Daily Weather History Graph

Daily Weather History Graph

Search for Another Location

Airport or City:

Trip Planner

Search our weather history database for the weather conditions in past years. The results will help you decide how hot, cold, wet, or windy it might be!

Date:

Astronomy

Feb. 18, 2014 Rise Set
Actual Time 7:28 AM EST 6:06 PM EST
Civil Twilight 6:59 AM EST 6:36 PM EST
Nautical Twilight 6:25 AM EST 7:10 PM EST
Astronomical Twilight 5:51 AM EST 7:44 PM EST
Moon 10:10 PM EST (2/18) 8:51 AM EST (2/18)
Length of Visible Light 11h 37m
Length of Day
10h 37m
Waning Gibbous, 87% of the Moon is Illuminated
Feb 18
Waning Gibbous
Feb 22
Last Quarter
Mar 1
New
Mar 8
First Quarter
Mar 16
Full

Hourly Weather History & Observations

Time (EST) Temp. Windchill Dew Point Humidity Pressure Visibility Wind Dir Wind Speed Gust Speed Precip Events Conditions
12:14 AM 21.2 °F 13.6 °F 19.4 °F 93% 29.69 in 1.8 mi NE 5.8 mph - N/A Snow Light Snow
12:34 AM 21.2 °F 12.6 °F 19.4 °F 93% 29.68 in 1.8 mi NNE 6.9 mph - N/A Snow Light Snow
12:54 AM 21.2 °F 10.1 °F 19.4 °F 93% 29.68 in 1.5 mi NNE 10.4 mph 16.1 mph N/A Snow Light Snow
1:14 AM 21.6 °F - 19.8 °F 93% 29.67 in 1.5 mi North - - N/A Snow Light Snow
1:34 AM 21.9 °F - 20.1 °F 93% 29.66 in 1.8 mi North - - N/A Snow Light Snow
1:54 AM 22.5 °F 14.1 °F 20.8 °F 93% 29.66 in 2.0 mi NNE 6.9 mph - N/A Snow Light Snow
2:14 AM 22.5 °F 13.2 °F 20.8 °F 93% 29.66 in 3.0 mi NNE 8.1 mph - N/A Snow Light Snow
2:34 AM 22.5 °F 13.2 °F 20.7 °F 93% 29.66 in 4.0 mi North 8.1 mph - N/A Snow Light Snow
2:54 AM 22.5 °F 13.2 °F 20.7 °F 93% 29.66 in 4.0 mi North 8.1 mph - N/A Snow Light Snow
3:14 AM 22.5 °F 11.7 °F 20.7 °F 93% 29.66 in 4.0 mi North 10.4 mph - N/A Snow Light Snow
3:34 AM 22.1 °F 10.6 °F 20.1 °F 92% 29.66 in 5.0 mi North 11.5 mph - N/A Snow Light Snow
3:53 AM 22.1 °F 12.0 °F 19.8 °F 91% 29.66 in 10.0 mi North 9.2 mph - N/A   Overcast
4:14 AM 21.9 °F 11.7 °F 19.4 °F 90% 29.68 in 10.0 mi North 9.2 mph - N/A   Overcast
4:34 AM 21.7 °F 13.2 °F 19.4 °F 91% 29.68 in 2.5 mi North 6.9 mph - N/A Snow Light Snow
4:54 AM 21.6 °F 12.1 °F 19.4 °F 91% 29.70 in 2.0 mi NNW 8.1 mph - N/A Snow Light Snow
5:14 AM 21.2 °F 14.9 °F 19.2 °F 92% 29.71 in 2.0 mi NNW 4.6 mph - N/A Snow Light Snow
5:34 AM 21.2 °F 12.6 °F 19.4 °F 93% 29.72 in 1.8 mi NW 6.9 mph - N/A Snow Light Snow
5:54 AM 21.2 °F 12.6 °F 19.2 °F 92% 29.74 in 2.0 mi WNW 6.9 mph - N/A Snow Light Snow
6:14 AM 21.2 °F 12.6 °F 18.9 °F 91% 29.75 in 3.0 mi WNW 6.9 mph - N/A Snow Light Snow
6:34 AM 21.0 °F 11.4 °F 18.5 °F 90% 29.76 in 5.0 mi WNW 8.1 mph - N/A Snow Light Snow
6:54 AM 20.1 °F 11.3 °F 17.4 °F 89% 29.76 in 7.0 mi WNW 6.9 mph - N/A Snow Light Snow
7:14 AM 18.5 °F 9.3 °F 15.6 °F 89% 29.77 in 10.0 mi West 6.9 mph - N/A   Clear
7:34 AM 17.6 °F 6.4 °F 14.9 °F 89% 29.79 in 10.0 mi West 9.2 mph - N/A   Clear
7:54 AM 17.4 °F 6.2 °F 14.2 °F 87% 29.80 in 10.0 mi West 9.2 mph - N/A   Clear
8:14 AM 17.2 °F 6.8 °F 14.0 °F 87% 29.81 in 10.0 mi West 8.1 mph - N/A   Clear
8:34 AM 16.9 °F 7.4 °F 13.3 °F 86% 29.82 in 5.0 mi West 6.9 mph - N/A   Clear
8:54 AM 18.3 °F 8.2 °F 14.2 °F 84% 29.83 in 10.0 mi West 8.1 mph - N/A   Clear
9:14 AM 19.4 °F 8.6 °F 14.0 °F 80% 29.84 in 10.0 mi West 9.2 mph - N/A   Clear
9:34 AM 20.3 °F 7.7 °F 14.4 °F 78% 29.85 in 7.0 mi West 12.7 mph - N/A   Clear
9:54 AM 21.4 °F 9.1 °F 14.2 °F 74% 29.85 in 10.0 mi WNW 12.7 mph - N/A   Clear
10:14 AM 21.6 °F 13.0 °F 14.2 °F 73% 29.85 in 10.0 mi West 6.9 mph - N/A   Clear
10:34 AM 21.2 °F 9.5 °F 14.4 °F 75% 29.86 in 10.0 mi WSW 11.5 mph - N/A   Clear
10:54 AM 22.6 °F 12.6 °F 15.8 °F 75% 29.87 in 10.0 mi WSW 9.2 mph - N/A   Clear
11:14 AM 23.9 °F 14.2 °F 16.0 °F 72% 29.87 in 10.0 mi WSW 9.2 mph - N/A   Clear
11:34 AM 25.5 °F 19.9 °F 16.5 °F 69% 29.87 in 10.0 mi WSW 4.6 mph - N/A   Clear
11:54 AM 26.1 °F 18.4 °F 17.8 °F 71% 29.87 in 10.0 mi WSW 6.9 mph - N/A   Clear
12:14 PM 27.0 °F 18.7 °F 18.5 °F 70% 29.87 in 10.0 mi WSW 8.1 mph - N/A   Clear
12:34 PM 27.5 °F 18.0 °F 18.9 °F 70% 29.87 in 10.0 mi SW 10.4 mph - N/A   Clear
12:54 PM 28.8 °F 20.9 °F 18.3 °F 65% 29.85 in 10.0 mi SSW 8.1 mph - N/A   Clear
1:14 PM 29.3 °F 20.8 °F 19.4 °F 67% 29.84 in 10.0 mi SW 9.2 mph - N/A   Clear
1:34 PM 29.8 °F 20.3 °F 19.8 °F 66% 29.84 in 10.0 mi SSW 11.5 mph - N/A   Clear
1:54 PM 30.0 °F 21.1 °F 20.1 °F 67% 29.85 in 7.0 mi SSW 10.4 mph 18.4 mph N/A   Clear
2:14 PM 30.6 °F 23.1 °F 20.1 °F 65% 29.82 in 10.0 mi South 8.1 mph - N/A   Clear
2:34 PM 30.9 °F 23.5 °F 20.3 °F 65% 29.82 in 10.0 mi South 8.1 mph - N/A   Clear
2:54 PM 30.7 °F 21.4 °F 19.9 °F 64% 29.81 in 10.0 mi SSW 11.5 mph 16.1 mph N/A   Clear
3:14 PM 29.5 °F 20.4 °F 19.9 °F 68% 29.80 in 10.0 mi South 10.4 mph - N/A   Clear
3:34 PM 29.3 °F 18.6 °F 20.3 °F 69% 29.81 in 10.0 mi South 13.8 mph 18.4 mph N/A   Clear
3:54 PM 29.3 °F 18.6 °F 21.0 °F 71% 29.81 in 10.0 mi South 13.8 mph 20.7 mph N/A   Clear
4:14 PM 29.3 °F 19.6 °F 21.7 °F 73% 29.77 in 10.0 mi South 11.5 mph 17.3 mph N/A   Clear
4:34 PM 29.1 °F 17.9 °F 21.6 °F 73% 29.78 in 10.0 mi South 15.0 mph 25.3 mph N/A   Clear
4:54 PM 29.3 °F 20.2 °F 22.1 °F 75% 29.77 in 10.0 mi South 10.4 mph 19.6 mph N/A   Clear
5:14 PM 28.9 °F 19.8 °F 21.9 °F 75% 29.76 in 10.0 mi South 10.4 mph 16.1 mph N/A   Clear
5:34 PM 29.1 °F 21.3 °F 21.9 °F 74% 29.74 in 10.0 mi South 8.1 mph - N/A   Clear
5:54 PM 28.9 °F 21.1 °F 21.7 °F 74% 29.74 in 10.0 mi SSE 8.1 mph - N/A   Clear
6:14 PM 28.2 °F 22.0 °F 21.9 °F 77% 29.74 in 10.0 mi South 5.8 mph - N/A   Clear
6:34 PM 27.5 °F 22.2 °F 21.0 °F 77% 29.73 in 10.0 mi SSE 4.6 mph - N/A   Clear
6:54 PM 27.0 °F 19.5 °F 21.2 °F 79% 29.73 in 10.0 mi SSE 6.9 mph - N/A   Clear
7:14 PM 27.7 °F 20.4 °F 21.6 °F 78% 29.71 in 10.0 mi SE 6.9 mph - N/A   Clear
7:34 PM 27.9 °F 22.6 °F 21.7 °F 78% 29.70 in 10.0 mi SE 4.6 mph - N/A   Clear
7:54 PM 27.5 °F 22.2 °F 21.9 °F 80% 29.70 in 10.0 mi SSE 4.6 mph - N/A   Clear
8:14 PM 28.0 °F 20.8 °F 22.6 °F 80% 29.68 in 10.0 mi SSE 6.9 mph - N/A   Clear
8:34 PM 28.4 °F 22.2 °F 23.0 °F 80% 29.67 in 10.0 mi SSE 5.8 mph - N/A   Clear
8:54 PM 29.8 °F 23.0 °F 23.9 °F 79% 29.65 in 10.0 mi South 6.9 mph - N/A   Clear
9:14 PM 30.4 °F 22.2 °F 24.8 °F 80% 29.65 in 7.0 mi South 9.2 mph - N/A   Clear
9:34 PM 30.2 °F 25.4 °F 24.8 °F 80% 29.64 in 7.0 mi South 4.6 mph - N/A   Clear
9:54 PM 30.2 °F 25.4 °F 25.2 °F 82% 29.64 in 7.0 mi South 4.6 mph - N/A   Clear
10:14 PM 30.9 °F 26.2 °F 25.5 °F 80% 29.63 in 7.0 mi South 4.6 mph - N/A   Clear
10:34 PM 31.1 °F 27.7 °F 25.7 °F 80% 29.62 in 7.0 mi South 3.5 mph - N/A   Clear
10:54 PM 30.2 °F 26.7 °F 25.7 °F 83% 29.61 in 7.0 mi South 3.5 mph - N/A   Clear
11:14 PM 30.9 °F 27.5 °F 26.4 °F 83% 29.60 in 7.0 mi South 3.5 mph - N/A   Clear
11:34 PM 31.8 °F - 27.3 °F 83% 29.60 in 10.0 mi Calm Calm - N/A   Clear
11:54 PM 32.7 °F 28.3 °F 28.2 °F 83% 29.59 in 10.0 mi South 4.6 mph - N/A   Clear